Fishing Creek, Maryland
Current Conditions -  °F | °C
As of 7:52 PM on Friday 24 Oct 2014 (Local Time) from KNHK Reporting Station
Broken Clouds Broken Clouds  
Wind Chill: 57°   Ceiling: 25000
Heat Index: 57°   Visibility: 10mi
Dew Point: 41°   Wind: 9mph
Humidity: 55%   Direction: 260°W
Pressure: 29.92"   Gusts: NA
Location:  38.31°N, 76.23°W
Report Text: KNHK 242352Z 26008KT 10SM BKN250 14/05 A2992 RMK AO2 SLP130 T01390050 10200 20139 53010 $
Loading
Personal Weather Stations






























Interactive Weather Map
Tropical Storm Tracking
New forecast layout! Learn more

10-Day Weather Forecast

Advertisements
Track Severe Weather on mobile